Elko New Market, MN

3:05 PM CST on December 05, 2016 (GMT -0600)
Louis St. | | Change Station

Elev 1129 ft 44.57 °N, 93.36 °W | Updated 10 seconds ago

Mostly Cloudy
Mostly Cloudy
37.9 °F
Feels Like 33 °F
N
6.7
Wind Variable Wind from SSE
Gusts 9.8 mph

Today
High -- | Low -- °F
--% Chance of Precip.
Yesterday
High -- | Low -- °F
Precip. -- in
Pressure 29.65 in
Visibility 10.0 miles
Clouds Mostly Cloudy 9000 ft
Windchill 33 °F
Dew Point 34 °F
Humidity 85%
Rainfall 0.24 in
Snow Depth Not available.
7:34 AM 4:33 PM
Waxing Crescent, 34% visible
METAR KLVN 052052Z AUTO 15010G19KT 10SM BKN090 02/01 A2965 RMK AO2
Pressure 29.65 in
Visibility 10.0 miles
Clouds Mostly Cloudy 9000 ft
Windchill 33 °F
Dew Point 34 °F
Humidity 85%
Rainfall 0.24 in
Snow Depth Not available.
7:34 AM 4:33 PM
Waxing Crescent, 34% visible
METAR KLVN 052052Z AUTO 15010G19KT 10SM BKN090 02/01 A2965 RMK AO2

10-Day Weather Forecast

Almanac

Astronomy

Dec. 05, 2016 Rise Set
Actual Time
Civil Twilight
Nautical Twilight
Astronomical Twilight
Moon
Length of Visible Light
Length of Day
Tomorrow will be .
, % of the Moon is Illuminated

Today's Extremes

State Highs State Lows

Community

WunderPhotos

Upload Photos

1,955,863 photos uploaded!

WunderBlog® & News

Nearby

Air Quality

  Air Quality AQ Index Pollutant
Not available.

Snow Depth

Station Depth Elevation

Earthquake Activity

City Distance Mag. Time & Date
Minimum magnitude displayed is 2.5.

Coastal Water Temperatures

Place Temperature

Stations

Nearby Weather Stations

Station Location Temp. Windchill Dew Point Humidity Wind Precip. Elev Updated Type
                   

Watches & Warnings

There are currently no watches in effect.